Ana Sayfa
METAR-TAF:

METAR-TAF

Havaalanları :

Sussex Airport

Sussex, New Jersey, Amerika Birleşik Devletleri

Enlem: 41-12-01N, Boylam: 074-37-23W, yükseklik: 128 m

Güncel hava durumu gözlemi

Rapor saat 17:53 UTC de 44 dakika önce yapıldı.
Rüzgar batı/güneybatıdan 3 kt
Sıcaklık 11°C
Nem 87%
Basınç 1008 hPa
Görüş mesafesi: 11.3 km
1000 ft yükseklikte çok bulutlu
hafif yağmur

METAR: KFWN 101753Z AUTO 24003KT 7SM -RA OVC010 11/09 A2977 RMK AO2 RAB1654 SLP082 P0001 60001 T01060094 10106 20072 56009

Saat: 13:37 (18:37 UTC)


TAF: eksik

4.000'den fazla havaalanı için hava durumu gözlemleri ve tahminleri (METAR ve TAF raporları).

Kullanılabilir istasyonlar harita üzerinde sarı ve kırmızı noktalarla gösterilir.

İstasyonun adını görmek için fareyi noktanın üzerinde gezdirin.

Sonrasında hava gözlem ve tahminlerini görmek için tıklayın.

Haritayı değiştirmek için: yaklaştırmak için siyah artı işaretli yeşil düğmeye ve uzaklaştırmak için de eksi işaretli düğmeye hızla tıklayın; bitişik haritalar için yeşil okları kullanın.


METAR-TAF: